sensor_id;sensor_type;location;lat;lon;timestamp;pressure;altitude;pressure_sealevel;temperature;humidity
65384;BME280;51986;52.788;41.368;2024-01-25T00:00:21;98919.31;;;-4.43;65.73
65384;BME280;51986;52.788;41.368;2024-01-25T00:02:48;98910.69;;;-4.56;65.69
65384;BME280;51986;52.788;41.368;2024-01-25T00:05:15;98876.25;;;-4.77;65.95
65384;BME280;51986;52.788;41.368;2024-01-25T00:07:49;98899.41;;;-4.77;66.72
65384;BME280;51986;52.788;41.368;2024-01-25T00:10:17;98907.34;;;-4.65;66.20
65384;BME280;51986;52.788;41.368;2024-01-25T00:12:45;98880.97;;;-4.79;66.72
65384;BME280;51986;52.788;41.368;2024-01-25T00:15:12;98907.91;;;-4.77;66.52
65384;BME280;51986;52.788;41.368;2024-01-25T00:17:41;98904.75;;;-4.65;66.28
65384;BME280;51986;52.788;41.368;2024-01-25T00:20:09;98899.16;;;-4.67;65.97
65384;BME280;51986;52.788;41.368;2024-01-25T00:22:37;98898.03;;;-4.92;66.58
65384;BME280;51986;52.788;41.368;2024-01-25T00:25:05;98878.63;;;-4.98;66.66
65384;BME280;51986;52.788;41.368;2024-01-25T00:27:32;98884.25;;;-4.88;66.20
65384;BME280;51986;52.788;41.368;2024-01-25T00:30:00;98876.09;;;-4.90;66.14
65384;BME280;51986;52.788;41.368;2024-01-25T00:32:27;98885.50;;;-4.76;66.43
65384;BME280;51986;52.788;41.368;2024-01-25T00:34:54;98882.97;;;-4.59;65.47
65384;BME280;51986;52.788;41.368;2024-01-25T00:37:22;98897.28;;;-4.84;66.21
65384;BME280;51986;52.788;41.368;2024-01-25T00:39:52;98904.47;;;-4.64;65.25
65384;BME280;51986;52.788;41.368;2024-01-25T00:42:22;98889.75;;;-4.72;65.23
65384;BME280;51986;52.788;41.368;2024-01-25T00:44:49;98860.69;;;-4.72;65.68
65384;BME280;51986;52.788;41.368;2024-01-25T00:47:17;98880.84;;;-4.66;65.02
65384;BME280;51986;52.788;41.368;2024-01-25T00:49:45;98886.75;;;-4.65;65.10
65384;BME280;51986;52.788;41.368;2024-01-25T00:52:12;98870.22;;;-4.73;65.18
65384;BME280;51986;52.788;41.368;2024-01-25T00:54:40;98852.09;;;-4.59;64.90
65384;BME280;51986;52.788;41.368;2024-01-25T00:57:08;98867.06;;;-4.61;64.76
65384;BME280;51986;52.788;41.368;2024-01-25T00:59:35;98870.28;;;-4.47;64.19
65384;BME280;51986;52.788;41.368;2024-01-25T01:02:04;98857.22;;;-4.68;65.07
65384;BME280;51986;52.788;41.368;2024-01-25T01:04:35;98837.34;;;-4.76;64.68
65384;BME280;51986;52.788;41.368;2024-01-25T01:07:14;98869.91;;;-4.71;64.82
65384;BME280;51986;52.788;41.368;2024-01-25T01:09:43;98805.38;;;-5.01;64.40
65384;BME280;51986;52.788;41.368;2024-01-25T01:12:11;98867.34;;;-4.80;64.69
65384;BME280;51986;52.788;41.368;2024-01-25T01:14:38;98831.56;;;-5.07;64.34
65384;BME280;51986;52.788;41.368;2024-01-25T01:17:05;98831.09;;;-5.01;63.87
65384;BME280;51986;52.788;41.368;2024-01-25T01:19:32;98847.75;;;-5.07;64.13
65384;BME280;51986;52.788;41.368;2024-01-25T01:22:00;98822.63;;;-5.01;63.75
65384;BME280;51986;52.788;41.368;2024-01-25T01:24:27;98851.59;;;-4.78;63.23
65384;BME280;51986;52.788;41.368;2024-01-25T01:26:54;98853.84;;;-4.77;63.18
65384;BME280;51986;52.788;41.368;2024-01-25T01:29:22;98849.47;;;-4.76;63.29
65384;BME280;51986;52.788;41.368;2024-01-25T01:31:49;98848.84;;;-4.91;62.89
65384;BME280;51986;52.788;41.368;2024-01-25T01:34:16;98859.94;;;-4.73;63.00
65384;BME280;51986;52.788;41.368;2024-01-25T01:36:44;98843.28;;;-4.58;62.15
65384;BME280;51986;52.788;41.368;2024-01-25T01:39:35;98845.28;;;-4.55;62.31
65384;BME280;51986;52.788;41.368;2024-01-25T01:42:03;98834.47;;;-4.83;62.63
65384;BME280;51986;52.788;41.368;2024-01-25T01:44:30;98846.50;;;-4.61;62.20
65384;BME280;51986;52.788;41.368;2024-01-25T01:46:57;98833.75;;;-4.66;61.96
65384;BME280;51986;52.788;41.368;2024-01-25T01:49:24;98830.84;;;-4.82;62.57
65384;BME280;51986;52.788;41.368;2024-01-25T01:51:52;98834.03;;;-4.85;62.10
65384;BME280;51986;52.788;41.368;2024-01-25T01:54:20;98795.75;;;-4.78;61.99
65384;BME280;51986;52.788;41.368;2024-01-25T01:56:48;98809.66;;;-4.79;62.09
65384;BME280;51986;52.788;41.368;2024-01-25T01:59:16;98814.81;;;-4.88;62.78
65384;BME280;51986;52.788;41.368;2024-01-25T02:01:43;98780.59;;;-4.88;61.79
65384;BME280;51986;52.788;41.368;2024-01-25T02:04:10;98799.81;;;-4.86;62.40
65384;BME280;51986;52.788;41.368;2024-01-25T02:06:38;98815.88;;;-4.71;61.83
65384;BME280;51986;52.788;41.368;2024-01-25T02:09:06;98765.00;;;-5.09;62.35
65384;BME280;51986;52.788;41.368;2024-01-25T02:11:34;98790.44;;;-4.99;62.03
65384;BME280;51986;52.788;41.368;2024-01-25T02:14:05;98780.44;;;-4.92;62.42
65384;BME280;51986;52.788;41.368;2024-01-25T02:16:32;98778.59;;;-5.00;62.70
65384;BME280;51986;52.788;41.368;2024-01-25T02:18:59;98803.44;;;-5.04;63.00
65384;BME280;51986;52.788;41.368;2024-01-25T02:21:26;98759.84;;;-5.00;63.01
65384;BME280;51986;52.788;41.368;2024-01-25T02:23:54;98792.69;;;-4.97;63.45
65384;BME280;51986;52.788;41.368;2024-01-25T02:26:22;98776.16;;;-5.22;63.81
65384;BME280;51986;52.788;41.368;2024-01-25T02:28:49;98763.94;;;-5.08;64.21
65384;BME280;51986;52.788;41.368;2024-01-25T02:31:16;98785.59;;;-4.92;63.64
65384;BME280;51986;52.788;41.368;2024-01-25T02:33:43;98786.66;;;-4.84;63.39
65384;BME280;51986;52.788;41.368;2024-01-25T02:36:11;98782.56;;;-4.94;64.05
65384;BME280;51986;52.788;41.368;2024-01-25T02:38:38;98780.13;;;-5.07;64.09
65384;BME280;51986;52.788;41.368;2024-01-25T02:41:05;98767.25;;;-5.07;63.98
65384;BME280;51986;52.788;41.368;2024-01-25T02:43:32;98773.59;;;-5.22;64.02
65384;BME280;51986;52.788;41.368;2024-01-25T02:45:59;98760.59;;;-5.08;64.47
65384;BME280;51986;52.788;41.368;2024-01-25T02:48:27;98780.88;;;-5.07;63.49
65384;BME280;51986;52.788;41.368;2024-01-25T02:50:54;98760.13;;;-5.28;63.97
65384;BME280;51986;52.788;41.368;2024-01-25T02:53:23;98776.47;;;-5.06;63.69
65384;BME280;51986;52.788;41.368;2024-01-25T02:55:50;98744.13;;;-4.99;63.53
65384;BME280;51986;52.788;41.368;2024-01-25T02:58:17;98792.22;;;-5.08;63.69
65384;BME280;51986;52.788;41.368;2024-01-25T03:00:44;98765.59;;;-5.03;63.66
65384;BME280;51986;52.788;41.368;2024-01-25T03:03:11;98767.09;;;-5.11;63.14
65384;BME280;51986;52.788;41.368;2024-01-25T03:05:38;98747.59;;;-5.12;63.22
65384;BME280;51986;52.788;41.368;2024-01-25T03:08:06;98768.59;;;-5.10;63.85
65384;BME280;51986;52.788;41.368;2024-01-25T03:10:33;98741.53;;;-5.16;62.73
65384;BME280;51986;52.788;41.368;2024-01-25T03:13:00;98774.69;;;-4.97;63.20
65384;BME280;51986;52.788;41.368;2024-01-25T03:15:27;98744.56;;;-4.97;62.99
65384;BME280;51986;52.788;41.368;2024-01-25T03:17:54;98725.63;;;-5.09;63.33
65384;BME280;51986;52.788;41.368;2024-01-25T03:20:21;98748.50;;;-4.82;62.36
65384;BME280;51986;52.788;41.368;2024-01-25T03:22:48;98751.66;;;-5.11;63.67
65384;BME280;51986;52.788;41.368;2024-01-25T03:25:16;98734.13;;;-5.09;62.98
65384;BME280;51986;52.788;41.368;2024-01-25T03:27:43;98689.31;;;-5.43;63.21
65384;BME280;51986;52.788;41.368;2024-01-25T03:30:11;98751.38;;;-4.92;63.17
65384;BME280;51986;52.788;41.368;2024-01-25T03:32:38;98716.53;;;-5.42;63.37
65384;BME280;51986;52.788;41.368;2024-01-25T03:35:06;98738.50;;;-5.18;62.76
65384;BME280;51986;52.788;41.368;2024-01-25T03:37:33;98748.94;;;-5.15;63.01
65384;BME280;51986;52.788;41.368;2024-01-25T03:40:00;98744.84;;;-5.16;63.09
65384;BME280;51986;52.788;41.368;2024-01-25T03:42:28;98758.16;;;-5.22;63.11
65384;BME280;51986;52.788;41.368;2024-01-25T03:44:55;98739.47;;;-5.54;64.09
65384;BME280;51986;52.788;41.368;2024-01-25T03:47:22;98729.63;;;-5.60;63.83
65384;BME280;51986;52.788;41.368;2024-01-25T03:49:49;98754.34;;;-5.33;63.31
65384;BME280;51986;52.788;41.368;2024-01-25T03:52:16;98706.56;;;-5.34;62.72
65384;BME280;51986;52.788;41.368;2024-01-25T03:54:43;98743.63;;;-5.27;63.39
65384;BME280;51986;52.788;41.368;2024-01-25T03:57:11;98727.56;;;-5.41;62.74
65384;BME280;51986;52.788;41.368;2024-01-25T03:59:38;98734.41;;;-5.19;62.77
65384;BME280;51986;52.788;41.368;2024-01-25T04:02:05;98722.72;;;-5.34;62.64
65384;BME280;51986;52.788;41.368;2024-01-25T04:04:32;98723.81;;;-5.26;62.95
65384;BME280;51986;52.788;41.368;2024-01-25T04:07:00;98718.34;;;-5.33;63.07
65384;BME280;51986;52.788;41.368;2024-01-25T04:09:27;98703.69;;;-5.42;63.40
65384;BME280;51986;52.788;41.368;2024-01-25T04:11:55;98717.63;;;-5.17;62.87
65384;BME280;51986;52.788;41.368;2024-01-25T04:14:22;98722.78;;;-5.17;62.78
65384;BME280;51986;52.788;41.368;2024-01-25T04:16:49;98714.13;;;-5.29;63.04
65384;BME280;51986;52.788;41.368;2024-01-25T04:19:16;98715.19;;;-5.30;62.17
65384;BME280;51986;52.788;41.368;2024-01-25T04:21:44;98680.34;;;-5.54;62.83
65384;BME280;51986;52.788;41.368;2024-01-25T04:24:11;98718.03;;;-5.41;62.91
65384;BME280;51986;52.788;41.368;2024-01-25T04:26:39;98700.41;;;-5.73;62.60
65384;BME280;51986;52.788;41.368;2024-01-25T04:29:06;98674.88;;;-5.78;62.68
65384;BME280;51986;52.788;41.368;2024-01-25T04:31:33;98716.09;;;-5.26;61.72
65384;BME280;51986;52.788;41.368;2024-01-25T04:34:01;98715.28;;;-5.53;62.32
65384;BME280;51986;52.788;41.368;2024-01-25T04:36:28;98705.50;;;-5.42;61.34
65384;BME280;51986;52.788;41.368;2024-01-25T04:38:55;98726.47;;;-5.49;61.28
65384;BME280;51986;52.788;41.368;2024-01-25T04:41:22;98720.81;;;-5.68;61.77
65384;BME280;51986;52.788;41.368;2024-01-25T04:43:49;98714.84;;;-5.46;61.48
65384;BME280;51986;52.788;41.368;2024-01-25T04:46:16;98704.63;;;-5.77;60.99
65384;BME280;51986;52.788;41.368;2024-01-25T04:48:44;98703.22;;;-5.92;61.40
65384;BME280;51986;52.788;41.368;2024-01-25T04:51:18;98695.16;;;-5.59;61.64
65384;BME280;51986;52.788;41.368;2024-01-25T04:53:45;98683.81;;;-5.67;61.15
65384;BME280;51986;52.788;41.368;2024-01-25T04:56:12;98712.72;;;-5.53;60.97
65384;BME280;51986;52.788;41.368;2024-01-25T04:58:40;98724.22;;;-5.50;60.45
65384;BME280;51986;52.788;41.368;2024-01-25T05:01:07;98704.56;;;-5.55;60.42
65384;BME280;51986;52.788;41.368;2024-01-25T05:03:34;98696.41;;;-5.40;60.35
65384;BME280;51986;52.788;41.368;2024-01-25T05:06:02;98713.09;;;-5.28;59.96
65384;BME280;51986;52.788;41.368;2024-01-25T05:08:29;98678.25;;;-5.43;60.00
65384;BME280;51986;52.788;41.368;2024-01-25T05:10:56;98683.44;;;-5.17;60.12
65384;BME280;51986;52.788;41.368;2024-01-25T05:13:23;98705.22;;;-5.23;59.91
65384;BME280;51986;52.788;41.368;2024-01-25T05:15:50;98690.09;;;-5.25;60.10
65384;BME280;51986;52.788;41.368;2024-01-25T05:18:17;98692.81;;;-5.21;59.97
65384;BME280;51986;52.788;41.368;2024-01-25T05:20:44;98687.50;;;-5.25;59.98
65384;BME280;51986;52.788;41.368;2024-01-25T05:23:12;98684.03;;;-5.29;59.63
65384;BME280;51986;52.788;41.368;2024-01-25T05:25:39;98668.03;;;-5.08;59.12
65384;BME280;51986;52.788;41.368;2024-01-25T05:28:06;98678.75;;;-5.32;59.82
65384;BME280;51986;52.788;41.368;2024-01-25T05:30:34;98705.84;;;-5.18;59.72
65384;BME280;51986;52.788;41.368;2024-01-25T05:33:01;98661.06;;;-4.99;58.89
65384;BME280;51986;52.788;41.368;2024-01-25T05:35:28;98644.56;;;-5.24;59.31
65384;BME280;51986;52.788;41.368;2024-01-25T05:37:56;98681.66;;;-4.99;59.37
65384;BME280;51986;52.788;41.368;2024-01-25T05:40:23;98682.25;;;-4.85;58.86
65384;BME280;51986;52.788;41.368;2024-01-25T05:42:50;98671.78;;;-5.06;58.91
65384;BME280;51986;52.788;41.368;2024-01-25T05:45:18;98667.56;;;-5.11;59.32
65384;BME280;51986;52.788;41.368;2024-01-25T05:47:45;98696.63;;;-4.93;59.32
65384;BME280;51986;52.788;41.368;2024-01-25T05:50:12;98675.88;;;-5.22;59.85
65384;BME280;51986;52.788;41.368;2024-01-25T05:52:40;98669.06;;;-5.01;59.40
65384;BME280;51986;52.788;41.368;2024-01-25T05:55:07;98656.81;;;-4.95;59.63
65384;BME280;51986;52.788;41.368;2024-01-25T05:57:35;98667.84;;;-4.86;59.51
65384;BME280;51986;52.788;41.368;2024-01-25T06:00:04;98657.88;;;-4.70;59.06
65384;BME280;51986;52.788;41.368;2024-01-25T06:02:33;98641.38;;;-4.95;58.55
65384;BME280;51986;52.788;41.368;2024-01-25T06:05:01;98646.81;;;-4.79;58.37
65384;BME280;51986;52.788;41.368;2024-01-25T06:07:28;98661.50;;;-4.89;58.20
65384;BME280;51986;52.788;41.368;2024-01-25T06:09:56;98635.78;;;-4.97;57.57
65384;BME280;51986;52.788;41.368;2024-01-25T06:12:23;98656.47;;;-4.68;57.19
65384;BME280;51986;52.788;41.368;2024-01-25T06:14:50;98647.75;;;-4.84;57.46
65384;BME280;51986;52.788;41.368;2024-01-25T06:17:17;98641.78;;;-4.58;57.01
65384;BME280;51986;52.788;41.368;2024-01-25T06:19:44;98658.03;;;-4.84;57.08
65384;BME280;51986;52.788;41.368;2024-01-25T06:22:12;98620.72;;;-4.52;56.75
65384;BME280;51986;52.788;41.368;2024-01-25T06:24:39;98660.53;;;-4.41;55.95
65384;BME280;51986;52.788;41.368;2024-01-25T06:27:06;98617.63;;;-5.01;55.78
65384;BME280;51986;52.788;41.368;2024-01-25T06:29:33;98640.28;;;-4.68;55.29
65384;BME280;51986;52.788;41.368;2024-01-25T06:32:00;98651.13;;;-4.37;54.92
65384;BME280;51986;52.788;41.368;2024-01-25T06:34:36;98640.13;;;-4.16;54.08
65384;BME280;51986;52.788;41.368;2024-01-25T06:37:04;98652.50;;;-4.01;53.82
65384;BME280;51986;52.788;41.368;2024-01-25T06:39:31;98631.53;;;-3.91;53.78
65384;BME280;51986;52.788;41.368;2024-01-25T06:41:59;98642.31;;;-3.89;53.76
65384;BME280;51986;52.788;41.368;2024-01-25T06:44:27;98647.38;;;-3.80;52.55
65384;BME280;51986;52.788;41.368;2024-01-25T06:46:54;98623.69;;;-3.94;53.25
65384;BME280;51986;52.788;41.368;2024-01-25T06:49:21;98619.84;;;-4.18;52.63
65384;BME280;51986;52.788;41.368;2024-01-25T06:51:49;98616.97;;;-4.16;52.22
65384;BME280;51986;52.788;41.368;2024-01-25T06:54:16;98614.59;;;-3.71;51.83
65384;BME280;51986;52.788;41.368;2024-01-25T06:56:43;98633.22;;;-3.65;51.37
65384;BME280;51986;52.788;41.368;2024-01-25T06:59:10;98595.13;;;-3.39;51.45
65384;BME280;51986;52.788;41.368;2024-01-25T07:01:37;98600.34;;;-3.26;50.82
65384;BME280;51986;52.788;41.368;2024-01-25T07:04:05;98589.72;;;-3.67;50.49
65384;BME280;51986;52.788;41.368;2024-01-25T07:06:33;98592.22;;;-3.58;50.48
65384;BME280;51986;52.788;41.368;2024-01-25T07:09:00;98631.88;;;-3.71;50.70
65384;BME280;51986;52.788;41.368;2024-01-25T07:11:27;98615.81;;;-3.98;50.96
65384;BME280;51986;52.788;41.368;2024-01-25T07:13:55;98614.84;;;-3.85;50.82
65384;BME280;51986;52.788;41.368;2024-01-25T07:16:22;98608.81;;;-3.89;50.85
65384;BME280;51986;52.788;41.368;2024-01-25T07:18:49;98608.81;;;-3.47;50.06
65384;BME280;51986;52.788;41.368;2024-01-25T07:21:17;98610.34;;;-3.96;50.76
65384;BME280;51986;52.788;41.368;2024-01-25T07:23:44;98632.53;;;-3.74;50.51
65384;BME280;51986;52.788;41.368;2024-01-25T07:26:17;98636.69;;;-3.91;50.52
65384;BME280;51986;52.788;41.368;2024-01-25T07:28:44;98601.16;;;-4.06;51.32
65384;BME280;51986;52.788;41.368;2024-01-25T07:31:11;98602.03;;;-4.02;50.41
65384;BME280;51986;52.788;41.368;2024-01-25T07:33:38;98612.44;;;-3.90;50.44
65384;BME280;51986;52.788;41.368;2024-01-25T07:36:06;98613.28;;;-3.77;50.68
65384;BME280;51986;52.788;41.368;2024-01-25T07:38:33;98626.19;;;-3.86;50.50
65384;BME280;51986;52.788;41.368;2024-01-25T07:41:00;98603.88;;;-4.02;51.29
65384;BME280;51986;52.788;41.368;2024-01-25T07:43:27;98602.31;;;-3.95;51.86
65384;BME280;51986;52.788;41.368;2024-01-25T07:45:54;98603.00;;;-3.86;51.06
65384;BME280;51986;52.788;41.368;2024-01-25T07:48:22;98600.00;;;-4.17;52.07
65384;BME280;51986;52.788;41.368;2024-01-25T07:50:49;98624.59;;;-3.69;51.74
65384;BME280;51986;52.788;41.368;2024-01-25T07:53:16;98615.25;;;-3.53;51.01
65384;BME280;51986;52.788;41.368;2024-01-25T07:55:43;98603.06;;;-3.65;51.11
65384;BME280;51986;52.788;41.368;2024-01-25T07:58:11;98633.03;;;-3.60;51.23
65384;BME280;51986;52.788;41.368;2024-01-25T08:00:38;98636.25;;;-3.63;51.81
65384;BME280;51986;52.788;41.368;2024-01-25T08:03:05;98642.75;;;-3.66;52.14
65384;BME280;51986;52.788;41.368;2024-01-25T08:05:32;98609.38;;;-3.83;51.91
65384;BME280;51986;52.788;41.368;2024-01-25T08:08:13;98609.56;;;-3.67;51.63
65384;BME280;51986;52.788;41.368;2024-01-25T08:10:41;98604.31;;;-4.00;51.78
65384;BME280;51986;52.788;41.368;2024-01-25T08:13:08;98593.06;;;-3.96;51.61
65384;BME280;51986;52.788;41.368;2024-01-25T08:15:35;98640.09;;;-3.99;51.95
65384;BME280;51986;52.788;41.368;2024-01-25T08:18:03;98590.31;;;-3.91;51.37
65384;BME280;51986;52.788;41.368;2024-01-25T08:20:31;98595.22;;;-3.77;51.37
65384;BME280;51986;52.788;41.368;2024-01-25T08:22:58;98623.50;;;-3.39;51.36
65384;BME280;51986;52.788;41.368;2024-01-25T08:25:25;98541.91;;;-3.85;51.79
65384;BME280;51986;52.788;41.368;2024-01-25T08:27:53;98588.34;;;-3.64;51.42
65384;BME280;51986;52.788;41.368;2024-01-25T08:30:20;98608.53;;;-3.45;51.22
65384;BME280;51986;52.788;41.368;2024-01-25T08:32:47;98611.22;;;-3.42;51.22
65384;BME280;51986;52.788;41.368;2024-01-25T08:35:15;98563.69;;;-3.53;50.83
65384;BME280;51986;52.788;41.368;2024-01-25T08:37:43;98569.22;;;-3.63;50.77
65384;BME280;51986;52.788;41.368;2024-01-25T08:40:11;98562.28;;;-3.71;51.12
65384;BME280;51986;52.788;41.368;2024-01-25T08:42:38;98589.34;;;-3.36;51.02
65384;BME280;51986;52.788;41.368;2024-01-25T08:45:06;98603.22;;;-3.07;50.96
65384;BME280;51986;52.788;41.368;2024-01-25T08:47:44;98583.72;;;-3.38;50.58
65384;BME280;51986;52.788;41.368;2024-01-25T08:50:12;98592.47;;;-3.30;50.67
65384;BME280;51986;52.788;41.368;2024-01-25T08:52:39;98574.38;;;-3.63;51.62
65384;BME280;51986;52.788;41.368;2024-01-25T08:55:07;98581.03;;;-3.41;51.20
65384;BME280;51986;52.788;41.368;2024-01-25T08:57:34;98547.56;;;-3.71;51.08
65384;BME280;51986;52.788;41.368;2024-01-25T09:00:02;98581.91;;;-3.16;50.45
65384;BME280;51986;52.788;41.368;2024-01-25T09:02:29;98568.25;;;-3.38;50.12
65384;BME280;51986;52.788;41.368;2024-01-25T09:04:57;98551.06;;;-3.13;50.64
65384;BME280;51986;52.788;41.368;2024-01-25T09:07:24;98585.34;;;-2.67;49.94
65384;BME280;51986;52.788;41.368;2024-01-25T09:09:51;98566.41;;;-2.71;49.77
65384;BME280;51986;52.788;41.368;2024-01-25T09:12:18;98558.75;;;-2.92;50.32
65384;BME280;51986;52.788;41.368;2024-01-25T09:14:45;98574.16;;;-3.16;50.99
65384;BME280;51986;52.788;41.368;2024-01-25T09:17:13;98567.84;;;-3.40;50.99
65384;BME280;51986;52.788;41.368;2024-01-25T09:19:40;98580.91;;;-2.91;50.57
65384;BME280;51986;52.788;41.368;2024-01-25T09:22:09;98542.81;;;-2.94;50.56
65384;BME280;51986;52.788;41.368;2024-01-25T09:24:36;98561.69;;;-3.14;50.59
65384;BME280;51986;52.788;41.368;2024-01-25T09:27:03;98556.22;;;-3.46;51.43
65384;BME280;51986;52.788;41.368;2024-01-25T09:29:31;98580.41;;;-3.17;51.05
65384;BME280;51986;52.788;41.368;2024-01-25T09:31:59;98527.47;;;-3.57;51.72
65384;BME280;51986;52.788;41.368;2024-01-25T09:34:26;98567.84;;;-3.40;52.11
65384;BME280;51986;52.788;41.368;2024-01-25T09:36:53;98536.63;;;-3.26;51.62
65384;BME280;51986;52.788;41.368;2024-01-25T09:39:21;98536.66;;;-3.89;52.45
65384;BME280;51986;52.788;41.368;2024-01-25T09:41:48;98555.63;;;-3.31;51.89
65384;BME280;51986;52.788;41.368;2024-01-25T09:44:16;98548.69;;;-3.39;52.38
65384;BME280;51986;52.788;41.368;2024-01-25T09:46:43;98533.75;;;-3.45;52.26
65384;BME280;51986;52.788;41.368;2024-01-25T09:49:11;98513.00;;;-3.49;52.11
65384;BME280;51986;52.788;41.368;2024-01-25T09:51:40;98535.41;;;-3.28;52.37
65384;BME280;51986;52.788;41.368;2024-01-25T09:54:09;98506.00;;;-3.15;51.37
65384;BME280;51986;52.788;41.368;2024-01-25T09:56:36;98540.22;;;-3.06;51.45
65384;BME280;51986;52.788;41.368;2024-01-25T09:59:05;98547.13;;;-2.86;51.53
65384;BME280;51986;52.788;41.368;2024-01-25T10:01:32;98543.28;;;-3.25;51.76
65384;BME280;51986;52.788;41.368;2024-01-25T10:04:00;98528.31;;;-2.98;51.43
65384;BME280;51986;52.788;41.368;2024-01-25T10:06:27;98517.13;;;-3.02;51.19
65384;BME280;51986;52.788;41.368;2024-01-25T10:08:54;98526.50;;;-2.86;50.38
65384;BME280;51986;52.788;41.368;2024-01-25T10:11:22;98502.22;;;-3.18;50.99
65384;BME280;51986;52.788;41.368;2024-01-25T10:13:50;98556.28;;;-2.88;50.74
65384;BME280;51986;52.788;41.368;2024-01-25T10:16:18;98547.22;;;-2.94;50.90
65384;BME280;51986;52.788;41.368;2024-01-25T10:18:48;98513.00;;;-3.03;51.16
65384;BME280;51986;52.788;41.368;2024-01-25T10:21:17;98536.44;;;-3.09;51.19
65384;BME280;51986;52.788;41.368;2024-01-25T10:23:46;98544.34;;;-2.81;50.87
65384;BME280;51986;52.788;41.368;2024-01-25T10:26:13;98547.88;;;-2.85;50.78
65384;BME280;51986;52.788;41.368;2024-01-25T10:28:40;98543.38;;;-2.88;50.81
65384;BME280;51986;52.788;41.368;2024-01-25T10:31:09;98511.09;;;-2.94;51.04
65384;BME280;51986;52.788;41.368;2024-01-25T10:33:38;98520.66;;;-2.95;50.12
65384;BME280;51986;52.788;41.368;2024-01-25T10:36:08;98533.56;;;-2.95;50.76
65384;BME280;51986;52.788;41.368;2024-01-25T10:38:35;98528.41;;;-3.07;50.34
65384;BME280;51986;52.788;41.368;2024-01-25T10:41:05;98511.59;;;-3.13;50.83
65384;BME280;51986;52.788;41.368;2024-01-25T10:43:32;98516.53;;;-3.74;51.77
65384;BME280;51986;52.788;41.368;2024-01-25T10:46:00;98553.56;;;-3.58;52.34
65384;BME280;51986;52.788;41.368;2024-01-25T10:48:31;98544.75;;;-3.36;52.30
65384;BME280;51986;52.788;41.368;2024-01-25T10:50:59;98539.16;;;-3.59;52.45
65384;BME280;51986;52.788;41.368;2024-01-25T10:53:27;98532.34;;;-3.22;51.72
65384;BME280;51986;52.788;41.368;2024-01-25T10:55:56;98540.81;;;-3.54;52.88
65384;BME280;51986;52.788;41.368;2024-01-25T10:58:23;98496.28;;;-3.64;52.84
65384;BME280;51986;52.788;41.368;2024-01-25T11:00:56;98530.31;;;-3.70;53.94
65384;BME280;51986;52.788;41.368;2024-01-25T11:03:27;98524.63;;;-3.43;52.92
65384;BME280;51986;52.788;41.368;2024-01-25T11:05:55;98546.19;;;-3.47;52.74
65384;BME280;51986;52.788;41.368;2024-01-25T11:08:32;98540.28;;;-3.27;52.43
65384;BME280;51986;52.788;41.368;2024-01-25T11:10:59;98539.78;;;-3.41;52.47
65384;BME280;51986;52.788;41.368;2024-01-25T11:13:27;98554.63;;;-3.59;53.04
65384;BME280;51986;52.788;41.368;2024-01-25T11:15:54;98542.06;;;-3.61;53.31
65384;BME280;51986;52.788;41.368;2024-01-25T11:18:25;98551.28;;;-3.80;53.80
65384;BME280;51986;52.788;41.368;2024-01-25T11:20:52;98548.84;;;-3.98;53.88
65384;BME280;51986;52.788;41.368;2024-01-25T11:23:19;98569.16;;;-4.05;54.00
65384;BME280;51986;52.788;41.368;2024-01-25T11:25:47;98496.34;;;-4.14;53.69
65384;BME280;51986;52.788;41.368;2024-01-25T11:28:15;98498.31;;;-3.90;53.91
65384;BME280;51986;52.788;41.368;2024-01-25T11:30:43;98544.72;;;-3.69;53.86
65384;BME280;51986;52.788;41.368;2024-01-25T11:33:11;98523.97;;;-3.94;53.60
65384;BME280;51986;52.788;41.368;2024-01-25T11:35:38;98536.75;;;-3.43;53.53
65384;BME280;51986;52.788;41.368;2024-01-25T11:38:05;98525.84;;;-3.82;53.73
65384;BME280;51986;52.788;41.368;2024-01-25T11:40:33;98553.63;;;-3.88;54.07
65384;BME280;51986;52.788;41.368;2024-01-25T11:43:05;98534.25;;;-3.94;53.89
65384;BME280;51986;52.788;41.368;2024-01-25T11:45:32;98538.31;;;-4.14;54.13
65384;BME280;51986;52.788;41.368;2024-01-25T11:48:00;98527.72;;;-3.91;53.96
65384;BME280;51986;52.788;41.368;2024-01-25T11:50:27;98540.13;;;-3.85;54.29
65384;BME280;51986;52.788;41.368;2024-01-25T11:52:56;98547.16;;;-3.94;54.38
65384;BME280;51986;52.788;41.368;2024-01-25T11:55:23;98532.94;;;-4.00;54.08
65384;BME280;51986;52.788;41.368;2024-01-25T11:57:50;98529.34;;;-3.87;54.39
65384;BME280;51986;52.788;41.368;2024-01-25T12:00:18;98535.91;;;-3.68;54.05
65384;BME280;51986;52.788;41.368;2024-01-25T12:02:45;98496.44;;;-4.02;54.53
65384;BME280;51986;52.788;41.368;2024-01-25T12:05:13;98511.00;;;-4.06;54.75
65384;BME280;51986;52.788;41.368;2024-01-25T12:07:40;98537.16;;;-3.74;54.01
65384;BME280;51986;52.788;41.368;2024-01-25T12:10:10;98535.81;;;-4.01;54.34
65384;BME280;51986;52.788;41.368;2024-01-25T12:12:42;98542.34;;;-4.04;54.15
65384;BME280;51986;52.788;41.368;2024-01-25T12:15:09;98516.13;;;-4.27;54.67
65384;BME280;51986;52.788;41.368;2024-01-25T12:17:36;98531.09;;;-3.99;54.22
65384;BME280;51986;52.788;41.368;2024-01-25T12:20:04;98518.81;;;-3.94;53.93
65384;BME280;51986;52.788;41.368;2024-01-25T12:22:31;98522.84;;;-4.14;54.21
65384;BME280;51986;52.788;41.368;2024-01-25T12:25:06;98507.34;;;-4.05;54.51
65384;BME280;51986;52.788;41.368;2024-01-25T12:27:34;98509.19;;;-4.05;53.91
65384;BME280;51986;52.788;41.368;2024-01-25T12:30:01;98547.16;;;-4.23;55.04
65384;BME280;51986;52.788;41.368;2024-01-25T12:32:28;98520.53;;;-4.27;54.94
65384;BME280;51986;52.788;41.368;2024-01-25T12:34:57;98541.56;;;-4.25;54.88
65384;BME280;51986;52.788;41.368;2024-01-25T12:37:24;98539.84;;;-4.42;55.57
65384;BME280;51986;52.788;41.368;2024-01-25T12:39:53;98518.75;;;-4.36;55.29
65384;BME280;51986;52.788;41.368;2024-01-25T12:42:21;98540.81;;;-4.26;55.66
65384;BME280;51986;52.788;41.368;2024-01-25T12:44:52;98517.50;;;-4.29;54.89
65384;BME280;51986;52.788;41.368;2024-01-25T12:47:20;98541.38;;;-4.50;55.35
65384;BME280;51986;52.788;41.368;2024-01-25T12:49:47;98533.88;;;-4.34;55.09
65384;BME280;51986;52.788;41.368;2024-01-25T12:52:15;98533.06;;;-4.55;55.28